GW0500 Weather Reports


Display with metric or nautical units.
time (UTC)temp
F
wind
direction
speed
MPH
gust
MPH
rain 1hr
in
rain 24hr
in
rain mn
in
humidity
%
barometer
mb
20260502183055 75 289 1.0 6.0 0.00 0.00 0.00 20 1018.9
20260502182547 74 348 1.0 6.0 0.00 0.00 0.00 19 1018.8
20260502182044 74 300 1.0 6.0 0.00 0.00 0.00 18 1019.0
20260502181553 74 0 2.0 5.0 0.00 0.00 0.00 19 1018.8
20260502181047 74 333 2.0 4.0 0.00 0.00 0.00 19 1018.9
20260502180545 74 44 1.0 7.0 0.00 0.00 0.00 22 1019.1
20260502164050 70 240 2.0 6.0 0.00 0.00 0.00 25 1019.4
20260502163548 70 0 1.0 4.0 0.00 0.00 0.00 25 1019.4
20260502163059 69 0 0.0 7.0 0.00 0.00 0.00 24 1019.4
20260502162548 68 223 2.0 7.0 0.00 0.00 0.00 25 1019.4
20260502162048 67 100 1.0 5.0 0.00 0.00 0.00 26 1019.3
20260502161614 66 157 1.0 3.0 0.00 0.00 0.00 39 1019.3
20260502161048 65 0 1.0 7.0 0.00 0.00 0.00 38 1019.3
20260502160548 64 61 1.0 7.0 0.00 0.00 0.00 42 1019.3
20260502160120 63 0 0.0 4.0 0.00 0.00 0.00 47 1019.3
20260502152047 56 50 1.0 5.0 0.00 0.00 0.00 59 1019.3
20260502151554 56 44 2.0 5.0 0.00 0.00 0.00 56 1019.3
20260502151043 55 53 1.0 4.0 0.00 0.00 0.00 57 1019.2
20260502150543 55 45 1.0 4.0 0.00 0.00 0.00 56 1019.2
20260502130544 53 0 0.0 2.0 0.00 0.00 0.00 59 1018.2
20260502130110 53 38 1.0 2.0 0.00 0.00 0.00 59 1018.1
20260502123547 53 38 0.0 1.0 0.00 0.00 0.00 62 1017.8
20260502123121 53 0 0.0 1.0 0.00 0.00 0.00 62 1017.8
20260502122548 53 0 0.0 2.0 0.00 0.00 0.00 62 1017.9
20260502122048 53 38 0.0 2.0 0.00 0.00 0.00 61 1017.7
20260502121559 53 38 0.0 2.0 0.00 0.00 0.00 62 1017.7
20260502121049 53 38 0.0 2.0 0.00 0.00 0.00 62 1017.7
20260502120545 53 0 0.0 3.0 0.00 0.00 0.00 63 1017.7
20260502120122 53 38 0.0 3.0 0.00 0.00 0.00 63 1017.7
20260502115544 53 36 0.0 2.0 0.00 0.00 0.00 62 1017.7
20260502115047 53 36 0.0 3.0 0.00 0.00 0.00 62 1017.7
20260502114557 53 0 0.0 3.0 0.00 0.00 0.00 63 1017.7
20260502114048 52 36 0.0 3.0 0.00 0.00 0.00 65 1017.7
20260502113548 52 29 0.0 2.0 0.00 0.00 0.00 66 1017.7
20260502113054 52 29 0.0 1.0 0.00 0.00 0.00 66 1017.6
20260502112548 52 29 0.0 1.0 0.00 0.00 0.00 67 1017.7
20260502112048 52 0 0.0 2.0 0.00 0.00 0.00 67 1017.6
20260502111557 52 0 0.0 2.0 0.00 0.00 0.00 67 1017.6
20260502111048 52 12 0.0 1.0 0.00 0.00 0.00 64 1017.6
20260502110548 51 0 0.0 1.0 0.00 0.00 0.00 63 1017.6
20260502110052 51 0 0.0 1.0 0.00 0.00 0.00 63 1017.6
20260502105548 51 0 0.0 0.0 0.00 0.00 0.00 62 1017.6
20260502105047 52 0 0.0 0.0 0.00 0.00 0.00 62 1017.6
20260502104551 52 0 0.0 0.0 0.00 0.00 0.00 64 1017.6
20260502104048 52 0 0.0 0.0 0.00 0.00 0.00 63 1017.6
20260502103548 52 0 0.0 1.0 0.00 0.00 0.00 63 1017.6
20260502103054 52 0 0.0 1.0 0.00 0.00 0.00 64 1017.6
20260502102552 52 0 0.0 0.0 0.00 0.00 0.00 63 1017.5
20260502102046 52 0 0.0 0.0 0.00 0.00 0.00 61 1017.6
20260502101559 52 0 0.0 0.0 0.00 0.00 0.00 60 1017.5
20260502101048 52 0 0.0 0.0 0.00 0.00 0.00 61 1017.5
20260502100548 52 0 0.0 1.0 0.00 0.00 0.00 61 1017.4
20260502091043 53 0 0.0 1.0 0.00 0.00 0.00 57 1017.6
20260502090544 53 0 0.0 1.0 0.00 0.00 0.00 57 1017.7
20260502071047 54 51 0.0 2.0 0.00 0.00 0.00 54 1018.2
20260502070544 55 0 0.0 1.0 0.00 0.00 0.00 56 1018.3
20260502070052 55 0 0.0 3.0 0.00 0.00 0.00 54 1018.2
20260502065545 55 0 0.0 3.0 0.00 0.00 0.00 52 1018.2
20260502065043 55 0 0.0 3.0 0.00 0.00 0.00 55 1018.2
20260502064555 55 0 0.0 3.0 0.00 0.00 0.00 55 1018.2
20260502064043 56 51 2.0 4.0 0.00 0.00 0.00 55 1018.3
20260502063544 56 51 1.0 4.0 0.00 0.00 0.00 54 1018.2
20260502063057 56 0 0.0 4.0 0.00 0.00 0.00 53 1018.2
20260502062543 56 20 1.0 4.0 0.00 0.00 0.00 53 1018.3
20260502062048 56 42 1.0 4.0 0.00 0.00 0.00 53 1018.3
20260502061553 57 49 0.0 3.0 0.00 0.00 0.00 50 1018.2
20260502061047 57 53 0.0 3.0 0.00 0.00 0.00 51 1018.2
20260502060548 57 48 0.0 3.0 0.00 0.00 0.00 51 1018.2
20260502060118 58 48 1.0 4.0 0.00 0.00 0.00 49 1018.3
20260502055548 58 59 0.0 5.0 0.00 0.00 0.00 47 1018.3
20260502055048 59 309 0.0 5.0 0.00 0.00 0.00 44 1018.3
20260502054600 59 335 1.0 4.0 0.00 0.00 0.00 46 1018.2
20260502054049 59 0 0.0 4.0 0.00 0.00 0.00 46 1018.3
20260502053548 60 360 0.0 4.0 0.00 0.00 0.00 47 1018.3
20260502053055 60 282 1.0 4.0 0.00 0.00 0.00 46 1018.3
20260502052548 60 330 1.0 3.0 0.00 0.00 0.00 47 1018.3
20260502052047 59 315 1.0 3.0 0.00 0.00 0.00 44 1018.4
20260502051603 59 303 0.0 2.0 0.00 0.00 0.00 44 1018.4
20260502051047 59 0 0.0 3.0 0.00 0.00 0.00 46 1018.4
20260502050548 59 0 0.0 3.0 0.00 0.00 0.00 49 1018.4
20260502050058 59 313 0.0 3.0 0.00 0.00 0.00 52 1018.5
20260502045551 59 302 0.0 3.0 0.00 0.00 0.00 56 1018.5
20260502045049 59 0 1.0 3.0 0.00 0.00 0.00 58 1018.4
20260502044600 59 0 0.0 3.0 0.00 0.00 0.00 58 1018.4
20260502044048 59 21 0.0 3.0 0.00 0.00 0.00 58 1018.4
20260502043547 59 32 1.0 3.0 0.00 0.00 0.00 58 1018.3
20260502043121 58 0 1.0 3.0 0.00 0.00 0.00 56 1018.2
20260502042549 58 0 0.0 3.0 0.00 0.00 0.00 58 1018.2
20260502042048 57 0 1.0 5.0 0.00 0.00 0.00 61 1018.2
20260502041554 56 0 0.0 5.0 0.00 0.00 0.00 65 1018.1
20260502041049 55 61 0.0 2.0 0.00 0.00 0.00 69 1018.0
20260502040548 54 344 0.0 3.0 0.00 0.00 0.00 72 1018.0
20260502040106 55 0 0.0 3.0 0.00 0.00 0.00 76 1018.0
20260502035548 55 0 0.0 2.0 0.00 0.00 0.00 80 1018.0
20260502035048 55 0 0.0 1.0 0.00 0.00 0.00 82 1018.0
20260502034611 55 0 0.0 1.0 0.00 0.00 0.00 81 1018.0
20260502034049 55 0 0.0 1.0 0.00 0.00 0.00 81 1017.9
20260502033547 55 0 0.0 1.0 0.00 0.00 0.00 80 1017.9
20260502033106 55 28 0.0 1.0 0.00 0.00 0.00 79 1017.9
20260502032544 56 0 0.0 2.0 0.00 0.00 0.00 79 1017.9
20260502032047 56 0 0.0 2.0 0.00 0.00 0.00 79 1017.9
20260502031554 56 28 0.0 2.0 0.00 0.00 0.00 80 1017.9
20260502031048 56 0 0.0 1.0 0.00 0.00 0.00 78 1017.9
20260502030549 57 0 0.0 1.0 0.00 0.00 0.00 78 1017.9
20260502030050 57 0 0.0 1.0 0.00 0.00 0.00 79 1017.7
20260502025548 57 0 0.0 0.0 0.00 0.00 0.00 79 1017.7
20260502025200 58 0 0.0 0.0 0.00 0.00 0.00 79 1017.7
20260502024611 58 0 0.0 1.0 0.00 0.00 0.00 78 1017.6
20260502024049 58 0 0.0 1.0 0.00 0.00 0.00 78 1017.5
20260502023547 59 0 0.0 0.0 0.00 0.00 0.00 77 1017.6
20260502023049 59 0 0.0 2.0 0.00 0.00 0.00 76 1017.6
20260502022544 59 0 0.0 2.0 0.00 0.00 0.00 75 1017.5
20260502022043 60 28 0.0 2.0 0.00 0.00 0.00 75 1017.5
20260502021603 60 28 0.0 2.0 0.00 0.00 0.00 74 1017.6
20260502021043 61 0 0.0 0.0 0.00 0.00 0.00 74 1017.6
20260502020544 61 0 0.0 1.0 0.00 0.00 0.00 73 1017.4
20260502020052 62 0 0.0 1.0 0.00 0.00 0.00 72 1017.3
20260502015544 62 0 0.0 2.0 0.00 0.00 0.00 71 1017.3
20260502015043 62 0 0.0 2.0 0.00 0.00 0.00 70 1017.2
20260502014549 63 0 0.0 2.0 0.00 0.00 0.00 69 1017.2
20260502014044 64 261 0.0 2.0 0.00 0.00 0.00 68 1017.1
20260502013543 64 0 0.0 4.0 0.00 0.00 0.00 68 1017.1
20260502013051 64 0 0.0 4.0 0.00 0.00 0.00 67 1017.1
20260502012543 65 201 2.0 4.0 0.00 0.00 0.00 66 1017.1
20260502012050 65 215 1.0 5.0 0.00 0.00 0.00 65 1017.1
20260502011553 65 0 1.0 6.0 0.00 0.00 0.00 64 1017.2
20260502011046 66 155 1.0 6.0 0.00 0.00 0.00 63 1017.2
20260502010544 66 0 1.0 9.0 0.00 0.00 0.00 62 1017.1
20260502010055 67 203 1.0 9.0 0.00 0.00 0.00 61 1017.1
20260502005544 67 232 1.0 6.0 0.00 0.00 0.00 60 1017.1
20260502005044 67 188 1.0 6.0 0.00 0.00 0.00 59 1017.0
20260502004600 68 0 2.0 6.0 0.00 0.00 0.00 57 1017.0
20260502004045 68 171 2.0 6.0 0.00 0.00 0.00 56 1017.1
20260502003547 69 180 1.0 4.0 0.00 0.00 0.00 57 1017.0
20260502003049 69 178 1.0 5.0 0.00 0.00 0.00 56 1017.0
20260502002544 69 155 1.0 8.0 0.00 0.00 0.00 53 1017.0
20260502002044 70 167 2.0 8.0 0.00 0.00 0.00 53 1017.0
20260502001552 70 168 1.0 5.0 0.00 0.00 0.00 53 1017.0
20260502001044 71 179 1.0 6.0 0.00 0.00 0.00 52 1017.0
20260502000544 71 130 0.0 6.0 0.00 0.00 0.00 50 1017.0
20260502000053 71 131 1.0 5.0 0.00 0.00 0.00 51 1017.0
20260501235548 71 163 1.0 8.0 0.00 0.00 0.00 48 1017.0
20260501235044 71 0 2.0 9.0 0.00 0.00 0.00 46 1017.0
20260501234557 71 107 2.0 9.0 0.00 0.00 0.00 48 1016.8
20260501234045 72 200 1.0 11.0 0.00 0.00 0.00 48 1017.0
20260501233548 71 0 3.0 11.0 0.00 0.00 0.00 45 1017.0
20260501233100 71 175 3.0 6.0 0.00 0.00 0.00 45 1017.1
20260501232547 71 150 3.0 8.0 0.00 0.00 0.00 49 1017.1
20260501232047 71 167 2.0 8.0 0.00 0.00 0.00 49 1017.1
20260501231558 71 117 2.0 8.0 0.00 0.00 0.00 49 1017.2
20260501231048 71 158 1.0 12.0 0.00 0.00 0.00 50 1017.3
20260501230550 71 186 2.0 12.0 0.00 0.00 0.00 48 1017.3
20260501230101 71 226 2.0 9.0 0.00 0.00 0.00 47 1017.4
20260501225549 71 155 2.0 8.0 0.00 0.00 0.00 49 1017.4
20260501225046 71 144 2.0 8.0 0.00 0.00 0.00 50 1017.4
20260501224558 72 139 2.0 8.0 0.00 0.00 0.00 50 1017.4
20260501224049 72 62 2.0 7.0 0.00 0.00 0.00 49 1017.4
20260501223548 72 248 2.0 7.0 0.00 0.00 0.00 48 1017.4
20260501223106 73 185 2.0 7.0 0.00 0.00 0.00 48 1017.4
20260501222548 73 143 2.0 9.0 0.00 0.00 0.00 45 1017.4
20260501222048 74 213 3.0 9.0 0.00 0.00 0.00 45 1017.4
20260501221555 74 163 2.0 7.0 0.00 0.00 0.00 47 1017.4
20260501221047 73 267 2.0 9.0 0.00 0.00 0.00 46 1017.5
20260501220547 73 155 3.0 9.0 0.00 0.00 0.00 47 1017.5
20260501215547 74 191 2.0 7.0 0.00 0.00 0.00 45 1017.6
20260501215048 74 192 2.0 7.0 0.00 0.00 0.00 43 1017.7
20260501214551 73 209 2.0 6.0 0.00 0.00 0.00 45 1017.7
20260501214048 73 205 3.0 6.0 0.00 0.00 0.00 44 1017.7
20260501213548 73 173 2.0 7.0 0.00 0.00 0.00 43 1017.7
20260501213055 73 155 1.0 7.0 0.00 0.00 0.00 42 1017.9
20260501212550 73 153 3.0 11.0 0.00 0.00 0.00 45 1017.9
20260501212048 73 206 3.0 11.0 0.00 0.00 0.00 46 1017.9
20260501211601 73 161 2.0 7.0 0.00 0.00 0.00 48 1017.9
20260501211047 73 178 2.0 7.0 0.00 0.00 0.00 47 1017.9
20260501210547 73 137 2.0 6.0 0.00 0.00 0.00 46 1017.9
20260501210058 73 141 2.0 9.0 0.00 0.00 0.00 47 1017.9
20260501205550 73 244 0.0 9.0 0.00 0.00 0.00 48 1017.9
20260501205049 73 144 4.0 13.0 0.00 0.00 0.00 45 1018.0
20260501204553 73 131 3.0 13.0 0.00 0.00 0.00 45 1018.0
20260501204048 72 175 2.0 11.0 0.00 0.00 0.00 49 1017.9
20260501203548 72 192 3.0 11.0 0.00 0.00 0.00 46 1017.9
20260501203050 72 178 3.0 13.0 0.00 0.00 0.00 46 1017.9
20260501202548 73 163 4.0 13.0 0.00 0.00 0.00 51 1017.8
20260501202048 73 181 3.0 9.0 0.00 0.00 0.00 47 1017.8
20260501201601 74 205 2.0 8.0 0.00 0.00 0.00 51 1017.7
20260501201050 73 157 1.0 10.0 0.00 0.00 0.00 51 1017.8
20260501200548 73 128 2.0 10.0 0.00 0.00 0.00 49 1017.7
20260501200056 73 215 2.0 7.0 0.00 0.00 0.00 52 1017.8
20260501195551 73 146 3.0 7.0 0.00 0.00 0.00 46 1017.7
20260501195048 73 249 1.0 7.0 0.00 0.00 0.00 48 1017.7
20260501194600 73 211 2.0 8.0 0.00 0.00 0.00 50 1017.7
20260501194048 73 234 2.0 8.0 0.00 0.00 0.00 49 1017.7
20260501193549 72 155 2.0 10.0 0.00 0.00 0.00 51 1017.8
20260501193103 72 214 2.0 10.0 0.00 0.00 0.00 53 1017.9
20260501192548 72 157 3.0 9.0 0.00 0.00 0.00 54 1017.9
20260501192048 72 161 3.0 12.0 0.00 0.00 0.00 54 1017.9
20260501191553 72 165 5.0 12.0 0.00 0.00 0.00 50 1018.0
20260501191048 73 184 3.0 10.0 0.00 0.00 0.00 52 1018.0
20260501190551 73 165 1.0 8.0 0.00 0.00 0.00 48 1017.9
20260501190129 72 156 3.0 8.0 0.00 0.00 0.00 51 1017.9
20260501185547 72 157 2.0 6.0 0.00 0.00 0.00 49 1017.9
20260501185048 72 167 2.0 6.0 0.00 0.00 0.00 48 1018.0
20260501184610 73 147 2.0 11.0 0.00 0.00 0.00 48 1018.1
20260501184048 73 188 3.0 11.0 0.00 0.00 0.00 45 1018.0
20260501183549 73 180 2.0 9.0 0.00 0.00 0.00 44 1018.1